createdAt,value
2023-05-19T00:02:05.457Z,102465.94
2023-05-19T00:04:33.582Z,102466.56
2023-05-19T00:07:01.300Z,102357.03
2023-05-19T00:09:28.820Z,102472.91
2023-05-19T00:11:56.697Z,102457.34
2023-05-19T00:14:23.699Z,102471.59
2023-05-19T00:16:50.594Z,102444.25
2023-05-19T00:19:17.630Z,102473.91
2023-05-19T00:21:44.320Z,102351.59
2023-05-19T00:24:10.966Z,102473.75
2023-05-19T00:26:37.581Z,102474.03
2023-05-19T00:29:05.604Z,102470.28
2023-05-19T00:31:33.997Z,102441.13
2023-05-19T00:34:01.043Z,102459.81
2023-05-19T00:36:27.660Z,102379.13
2023-05-19T00:38:55.947Z,102348.03
2023-05-19T00:41:22.743Z,102405.00
2023-05-19T00:43:50.688Z,102340.56
2023-05-19T00:46:18.070Z,102452.00
2023-05-19T00:48:45.562Z,102415.03
2023-05-19T00:51:16.622Z,102407.72
2023-05-19T00:53:48.591Z,102432.19
2023-05-19T00:56:16.727Z,102431.13
2023-05-19T00:58:44.186Z,102424.78
2023-05-19T01:01:12.126Z,102430.09
2023-05-19T01:03:40.741Z,102387.34
2023-05-19T01:06:07.951Z,102407.22
2023-05-19T01:08:37.172Z,102412.59
2023-05-19T01:11:05.243Z,102434.19
2023-05-19T01:13:32.093Z,102183.28
2023-05-19T01:16:07.571Z,102439.50
2023-05-19T01:19:11.254Z,102432.25
2023-05-19T01:21:56.271Z,102436.63
2023-05-19T01:24:30.445Z,102443.59
2023-05-19T01:27:03.096Z,102432.72
2023-05-19T01:29:32.526Z,102432.59
2023-05-19T01:32:00.742Z,102390.59
2023-05-19T01:34:27.924Z,102344.47
2023-05-19T01:36:55.901Z,102415.00
2023-05-19T01:39:24.667Z,102426.72
2023-05-19T01:41:54.576Z,102431.94
2023-05-19T01:44:22.884Z,102440.84
2023-05-19T01:46:50.243Z,102429.28
2023-05-19T01:49:16.930Z,102425.00
2023-05-19T01:51:44.886Z,102424.16
2023-05-19T01:54:11.468Z,102435.75
2023-05-19T01:57:00.327Z,102436.28
2023-05-19T01:59:54.350Z,102425.69
2023-05-19T02:02:23.821Z,102430.84
2023-05-19T02:04:59.796Z,102369.34
2023-05-19T02:07:50.324Z,102412.72
2023-05-19T02:10:24.234Z,102414.69
2023-05-19T02:12:54.066Z,102411.97
2023-05-19T02:15:29.734Z,102407.28
2023-05-19T02:18:00.163Z,102391.72
2023-05-19T02:20:26.828Z,102425.97
2023-05-19T02:22:53.449Z,102394.28
2023-05-19T02:25:20.023Z,102409.78
2023-05-19T02:27:46.740Z,102407.00
2023-05-19T02:30:13.364Z,102391.34
2023-05-19T02:32:40.080Z,102301.63
2023-05-19T02:35:07.146Z,102411.84
2023-05-19T02:37:33.880Z,102320.34
2023-05-19T02:40:00.477Z,102359.66
2023-05-19T02:42:27.738Z,102404.72
2023-05-19T02:44:55.068Z,102414.47
2023-05-19T02:47:22.177Z,102406.53
2023-05-19T02:49:48.851Z,102389.19
2023-05-19T02:52:15.569Z,102297.84
2023-05-19T02:54:42.541Z,102383.97
2023-05-19T02:57:09.148Z,102388.06
2023-05-19T02:59:36.553Z,102398.94
2023-05-19T03:02:03.381Z,102398.94
2023-05-19T03:04:30.102Z,102294.50
2023-05-19T03:06:57.685Z,102374.47
2023-05-19T03:09:24.541Z,102378.09
2023-05-19T03:11:51.411Z,102369.78
2023-05-19T03:14:18.614Z,102397.75
2023-05-19T03:16:45.589Z,102391.38
2023-05-19T03:19:12.795Z,102286.50
2023-05-19T03:21:39.551Z,102388.75
2023-05-19T03:24:07.042Z,102383.97
2023-05-19T03:26:34.201Z,102387.75
2023-05-19T03:29:01.137Z,102383.69
2023-05-19T03:31:27.766Z,102392.97
2023-05-19T03:33:54.483Z,102375.75
2023-05-19T03:36:22.610Z,102371.88
2023-05-19T03:38:49.617Z,102340.13
2023-05-19T03:41:16.206Z,102373.69
2023-05-19T03:43:42.789Z,102381.84
2023-05-19T03:46:10.348Z,102395.16
2023-05-19T03:48:55.529Z,102316.09
2023-05-19T03:51:41.076Z,102408.78
2023-05-19T03:54:22.492Z,102395.91
2023-05-19T03:56:49.381Z,102416.41
2023-05-19T03:59:16.246Z,102378.59
2023-05-19T04:01:42.817Z,102390.31
2023-05-19T04:04:09.448Z,102426.44
2023-05-19T04:06:36.323Z,102422.66
2023-05-19T04:09:05.012Z,102410.59
2023-05-19T04:11:31.628Z,102407.09
2023-05-19T04:13:58.251Z,102427.06
2023-05-19T04:16:25.018Z,102406.66
2023-05-19T04:18:51.849Z,102389.41
2023-05-19T04:21:18.584Z,102410.22
2023-05-19T04:23:45.214Z,102408.06
2023-05-19T04:26:12.258Z,102272.91
2023-05-19T04:28:42.254Z,102311.13
2023-05-19T04:31:12.674Z,102299.97
2023-05-19T04:33:39.833Z,102334.41
2023-05-19T04:36:10.441Z,102368.03
2023-05-19T04:38:42.864Z,102415.44
2023-05-19T04:41:12.005Z,102394.50
2023-05-19T04:43:41.795Z,102372.91
2023-05-19T04:46:13.228Z,102398.50
2023-05-19T04:48:41.361Z,102403.13
2023-05-19T04:51:08.194Z,102410.16
2023-05-19T04:53:34.945Z,102317.88
2023-05-19T04:56:02.209Z,102416.75
2023-05-19T04:58:30.772Z,102407.09
2023-05-19T05:01:00.300Z,102411.97
2023-05-19T05:03:28.106Z,102402.69
2023-05-19T05:05:56.709Z,102416.44
2023-05-19T05:08:23.414Z,102382.94
2023-05-19T05:10:52.472Z,102406.00
2023-05-19T05:13:22.510Z,102408.03
2023-05-19T05:15:52.078Z,102410.06
2023-05-19T05:18:19.231Z,102339.59
2023-05-19T05:20:46.857Z,102416.13
2023-05-19T05:23:14.574Z,102404.84
2023-05-19T05:25:44.337Z,102414.06
2023-05-19T05:28:12.052Z,102386.16
2023-05-19T05:30:38.809Z,102420.53
2023-05-19T05:33:07.201Z,102417.13
2023-05-19T05:35:37.657Z,102410.84
2023-05-19T05:38:06.470Z,102320.78
2023-05-19T05:40:33.673Z,102411.50
2023-05-19T05:43:00.282Z,102410.78
2023-05-19T05:45:30.763Z,102434.81
2023-05-19T05:47:59.591Z,102400.69
2023-05-19T05:50:26.678Z,102425.53
2023-05-19T05:52:55.944Z,102426.97
2023-05-19T05:55:24.171Z,102425.47
2023-05-19T05:57:51.742Z,102422.91
2023-05-19T06:00:19.089Z,102421.50
2023-05-19T06:02:51.632Z,102378.50
2023-05-19T06:05:19.589Z,102424.00
2023-05-19T06:07:47.369Z,102401.75
2023-05-19T06:10:19.282Z,102423.13
2023-05-19T06:12:46.903Z,102403.91
2023-05-19T06:15:13.751Z,102385.63
2023-05-19T06:17:59.523Z,102423.31
2023-05-19T06:20:26.310Z,102422.06
2023-05-19T06:22:53.034Z,102396.81
2023-05-19T06:25:21.516Z,102422.50
2023-05-19T06:27:48.072Z,102394.09
2023-05-19T06:30:16.616Z,102428.75
2023-05-19T06:32:56.505Z,102397.59
2023-05-19T06:35:25.358Z,102402.28
2023-05-19T06:37:53.069Z,102429.28
2023-05-19T06:40:20.368Z,102410.28
2023-05-19T06:42:47.358Z,102416.63
2023-05-19T06:45:16.612Z,102416.38
2023-05-19T06:47:44.482Z,102418.47
2023-05-19T06:50:11.501Z,102402.81
2023-05-19T06:52:41.273Z,102404.59
2023-05-19T06:55:08.170Z,102416.19
2023-05-19T06:57:37.068Z,102429.56
2023-05-19T07:00:05.758Z,102429.81
2023-05-19T07:02:32.373Z,102421.16
2023-05-19T07:04:59.066Z,102357.63
2023-05-19T07:07:26.691Z,102428.31
2023-05-19T07:09:55.079Z,102418.50
2023-05-19T07:12:21.784Z,102421.38
2023-05-19T07:14:48.460Z,102421.63
2023-05-19T07:17:16.779Z,102329.00
2023-05-19T07:19:45.223Z,102406.56
2023-05-19T07:22:11.817Z,102425.44
2023-05-19T07:24:38.679Z,102427.91
2023-05-19T07:27:05.662Z,102427.81
2023-05-19T07:29:32.232Z,102412.31
2023-05-19T07:31:58.834Z,102436.03
2023-05-19T07:34:25.457Z,102430.75
2023-05-19T07:36:52.287Z,102429.06
2023-05-19T07:39:19.380Z,102401.13
2023-05-19T07:41:52.472Z,102425.53
2023-05-19T07:44:19.266Z,102417.53
2023-05-19T07:46:46.005Z,102355.56
2023-05-19T07:49:12.589Z,102431.34
2023-05-19T07:51:39.161Z,102399.19
2023-05-19T07:54:05.838Z,102418.31
2023-05-19T07:56:32.403Z,102423.88
2023-05-19T07:58:58.965Z,102428.41
2023-05-19T08:01:26.135Z,102432.03
2023-05-19T08:03:53.192Z,102423.06
2023-05-19T08:06:19.808Z,102405.09
2023-05-19T08:08:47.235Z,102406.91
2023-05-19T08:11:13.858Z,102418.63
2023-05-19T08:13:40.442Z,102400.59
2023-05-19T08:16:07.295Z,102413.06
2023-05-19T08:18:33.945Z,102398.63
2023-05-19T08:21:01.353Z,102413.84
2023-05-19T08:23:27.987Z,102402.06
2023-05-19T08:25:54.579Z,102342.63
2023-05-19T08:28:21.344Z,102368.47
2023-05-19T08:30:48.065Z,102364.03
2023-05-19T08:33:14.711Z,102377.25
2023-05-19T08:35:41.402Z,102318.91
2023-05-19T08:38:07.995Z,102385.91
2023-05-19T08:40:37.831Z,102387.94
2023-05-19T08:43:04.606Z,102379.78
2023-05-19T08:45:34.387Z,102364.28
2023-05-19T08:48:01.341Z,102374.00
2023-05-19T08:50:36.626Z,102318.25
2023-05-19T08:53:32.478Z,102368.47
2023-05-19T08:56:14.258Z,102300.16
2023-05-19T08:58:43.596Z,102355.38
2023-05-19T09:01:14.109Z,102300.28
2023-05-19T09:03:41.412Z,102329.84
2023-05-19T09:06:08.899Z,102303.00
2023-05-19T09:08:36.562Z,102337.59
2023-05-19T09:11:03.245Z,102351.91
2023-05-19T09:13:29.969Z,102348.06
2023-05-19T09:15:57.936Z,102362.00
2023-05-19T09:18:28.894Z,102285.00
2023-05-19T09:21:03.144Z,102344.72
2023-05-19T09:23:35.494Z,102329.31
2023-05-19T09:26:05.035Z,102280.94
2023-05-19T09:28:35.424Z,102279.84
2023-05-19T09:31:06.233Z,102337.16
2023-05-19T09:33:35.010Z,102334.78
2023-05-19T09:36:03.056Z,102333.38
2023-05-19T09:38:29.798Z,102327.25
2023-05-19T09:40:57.995Z,102336.72
2023-05-19T09:43:27.273Z,102322.91
2023-05-19T09:46:15.704Z,102323.53
2023-05-19T09:48:42.504Z,102308.19
2023-05-19T09:51:12.242Z,102299.53
2023-05-19T09:53:39.171Z,102309.44
2023-05-19T09:56:08.744Z,102309.72
2023-05-19T09:58:36.337Z,102314.56
2023-05-19T10:01:06.687Z,102320.31
2023-05-19T10:03:34.382Z,102260.59
2023-05-19T10:06:01.390Z,102222.56
2023-05-19T10:08:30.521Z,102322.97
2023-05-19T10:10:58.283Z,102247.47
2023-05-19T10:13:25.856Z,102328.50
2023-05-19T10:15:58.780Z,102315.75
2023-05-19T10:18:27.476Z,102293.75
2023-05-19T10:20:54.364Z,102230.75
2023-05-19T10:23:22.275Z,102312.94
2023-05-19T10:25:50.920Z,102254.75
2023-05-19T10:28:21.327Z,102312.81
2023-05-19T10:30:50.845Z,102216.34
2023-05-19T10:33:19.988Z,102230.97
2023-05-19T10:36:08.923Z,102293.31
2023-05-19T10:38:50.133Z,102283.47
2023-05-19T10:41:46.878Z,102280.50
2023-05-19T10:44:35.296Z,102235.31
2023-05-19T10:47:02.115Z,102290.75
2023-05-19T10:49:28.914Z,102278.16
2023-05-19T10:51:58.422Z,102278.56
2023-05-19T10:54:43.420Z,102284.88
2023-05-19T10:57:14.629Z,102242.38
2023-05-19T10:59:41.983Z,102251.75
2023-05-19T11:02:09.091Z,102276.94
2023-05-19T11:04:49.585Z,102195.38
2023-05-19T11:07:19.989Z,102266.13
2023-05-19T11:09:53.462Z,102257.66
2023-05-19T11:12:25.250Z,102279.16
2023-05-19T11:14:55.482Z,102281.31
2023-05-19T11:17:25.583Z,102271.06
2023-05-19T11:19:55.810Z,102216.00
2023-05-19T11:22:26.903Z,102270.22
2023-05-19T11:24:56.958Z,102209.09
2023-05-19T11:27:32.669Z,102277.91
2023-05-19T11:30:09.540Z,102254.63
2023-05-19T11:32:39.406Z,102264.47
2023-05-19T11:35:07.803Z,102269.59
2023-05-19T11:37:35.024Z,102253.72
2023-05-19T11:40:03.386Z,102191.88
2023-05-19T11:42:31.297Z,102252.06
2023-05-19T11:44:57.921Z,102256.03
2023-05-19T11:47:24.640Z,102241.13
2023-05-19T11:49:57.765Z,102193.94
2023-05-19T11:52:25.501Z,102238.41
2023-05-19T11:54:52.382Z,102241.47
2023-05-19T11:57:20.998Z,102252.25
2023-05-19T11:59:49.586Z,102197.38
2023-05-19T12:02:27.422Z,102216.19
2023-05-19T12:04:54.696Z,102225.16
2023-05-19T12:07:25.983Z,102183.34
2023-05-19T12:09:52.905Z,102223.16
2023-05-19T12:12:21.348Z,102146.19
2023-05-19T12:14:51.027Z,102234.69
2023-05-19T12:17:23.840Z,102169.19
2023-05-19T12:19:51.161Z,102171.78
2023-05-19T12:22:18.204Z,102232.59
2023-05-19T12:24:46.303Z,102219.06
2023-05-19T12:27:18.308Z,102229.88
2023-05-19T12:29:50.595Z,102212.03
2023-05-19T12:32:17.485Z,102218.69
2023-05-19T12:34:44.187Z,102218.69
2023-05-19T12:37:11.276Z,102168.06
2023-05-19T12:39:40.605Z,102195.91
2023-05-19T12:42:11.275Z,102213.34
2023-05-19T12:44:39.443Z,102214.16
2023-05-19T12:47:07.149Z,102203.56
2023-05-19T12:49:34.549Z,102157.41
2023-05-19T12:52:10.472Z,102151.81
2023-05-19T12:54:40.409Z,102002.16
2023-05-19T12:57:07.280Z,102197.31
2023-05-19T12:59:38.813Z,102207.56
2023-05-19T13:02:06.489Z,102204.44
2023-05-19T13:04:33.235Z,102158.34
2023-05-19T13:06:59.826Z,102179.41
2023-05-19T13:09:27.806Z,102192.25
2023-05-19T13:11:54.728Z,102159.38
2023-05-19T13:14:22.162Z,102174.06
2023-05-19T13:16:48.899Z,102178.22
2023-05-19T13:19:25.347Z,102135.81
2023-05-19T13:21:52.462Z,102180.84
2023-05-19T13:24:19.100Z,102160.28
2023-05-19T13:26:45.932Z,102178.50
2023-05-19T13:29:12.580Z,102147.41
2023-05-19T13:31:39.225Z,102176.75
2023-05-19T13:34:05.753Z,102139.47
2023-05-19T13:36:36.476Z,102155.69
2023-05-19T13:39:03.415Z,102178.22
2023-05-19T13:41:30.289Z,102159.50
2023-05-19T13:43:59.252Z,102155.50
2023-05-19T13:46:36.717Z,102156.13
2023-05-19T13:49:10.398Z,102139.16
2023-05-19T13:51:37.631Z,102146.47
2023-05-19T13:54:05.022Z,102125.91
2023-05-19T13:56:31.833Z,102149.00
2023-05-19T13:58:58.494Z,102113.00
2023-05-19T14:01:25.484Z,102158.47
2023-05-19T14:03:52.561Z,102145.31
2023-05-19T14:06:19.668Z,102085.88
2023-05-19T14:08:46.578Z,102151.16
2023-05-19T14:11:21.421Z,102141.53
2023-05-19T14:13:52.921Z,102075.63
2023-05-19T14:16:21.919Z,102141.47
2023-05-19T14:18:49.156Z,102044.63
2023-05-19T14:21:15.877Z,102109.50
2023-05-19T14:23:42.574Z,102144.47
2023-05-19T14:26:09.172Z,102135.88
2023-05-19T14:28:35.743Z,102138.66
2023-05-19T14:31:02.343Z,102116.53
2023-05-19T14:33:32.777Z,102130.81
2023-05-19T14:36:01.683Z,102152.53
2023-05-19T14:38:29.417Z,102128.53
2023-05-19T14:40:56.594Z,102113.72
2023-05-19T14:43:23.348Z,102013.84
2023-05-19T14:45:49.982Z,102139.25
2023-05-19T14:48:19.454Z,102140.47
2023-05-19T14:50:49.165Z,102120.84
2023-05-19T14:53:16.563Z,102066.81
2023-05-19T14:55:43.685Z,102137.19
2023-05-19T14:58:23.592Z,102126.66
2023-05-19T15:00:54.653Z,102119.03
2023-05-19T15:03:23.098Z,102119.78
2023-05-19T15:05:49.739Z,102115.59
2023-05-19T15:08:16.619Z,102108.03
2023-05-19T15:10:43.362Z,102102.94
2023-05-19T15:13:10.351Z,102038.84
2023-05-19T15:15:36.887Z,102107.25
2023-05-19T15:18:03.596Z,102090.63
2023-05-19T15:20:30.237Z,102032.06
2023-05-19T15:22:56.865Z,102106.19
2023-05-19T15:25:23.434Z,102104.50
2023-05-19T15:27:50.090Z,102105.53
2023-05-19T15:30:16.681Z,102110.31
2023-05-19T15:32:43.373Z,102056.88
2023-05-19T15:35:10.060Z,102109.78
2023-05-19T15:37:36.696Z,102099.94
2023-05-19T15:40:04.446Z,102108.78
2023-05-19T15:42:31.135Z,102074.41
2023-05-19T15:44:57.718Z,102081.13
2023-05-19T15:47:24.327Z,102090.38
2023-05-19T15:49:50.997Z,102088.06
2023-05-19T15:52:17.672Z,102096.44
2023-05-19T15:54:44.586Z,102100.63
2023-05-19T15:57:11.182Z,102076.56
2023-05-19T15:59:37.836Z,102082.47
2023-05-19T16:02:04.614Z,102063.00
2023-05-19T16:04:31.317Z,102045.78
2023-05-19T16:06:57.982Z,102079.22
2023-05-19T16:09:24.593Z,102058.03
2023-05-19T16:11:51.303Z,101996.69
2023-05-19T16:14:20.127Z,101977.88
2023-05-19T16:16:46.736Z,102079.66
2023-05-19T16:19:13.396Z,102073.03
2023-05-19T16:21:40.092Z,102065.91
2023-05-19T16:24:06.844Z,102028.97
2023-05-19T16:26:34.374Z,102077.13
2023-05-19T16:29:00.984Z,102065.31
2023-05-19T16:31:27.724Z,102080.50
2023-05-19T16:33:54.336Z,102006.63
2023-05-19T16:36:22.722Z,102060.13
2023-05-19T16:38:49.344Z,101989.56
2023-05-19T16:41:15.966Z,102060.50
2023-05-19T16:43:42.639Z,101999.38
2023-05-19T16:46:11.967Z,102060.81
2023-05-19T16:48:38.667Z,102070.72
2023-05-19T16:51:05.343Z,102066.97
2023-05-19T16:53:32.041Z,102039.50
2023-05-19T16:56:01.877Z,102069.00
2023-05-19T16:58:29.600Z,102072.75
2023-05-19T17:00:57.779Z,102042.03
2023-05-19T17:03:24.658Z,102065.00
2023-05-19T17:05:52.398Z,101978.44
2023-05-19T17:08:18.985Z,101994.38
2023-05-19T17:10:47.602Z,102084.66
2023-05-19T17:13:14.228Z,102056.56
2023-05-19T17:15:43.019Z,102091.56
2023-05-19T17:18:12.453Z,102079.41
2023-05-19T17:20:39.267Z,102077.41
2023-05-19T17:23:05.986Z,102076.69
2023-05-19T17:25:32.945Z,102063.44
2023-05-19T17:27:59.580Z,102034.56
2023-05-19T17:30:26.513Z,102071.88
2023-05-19T17:32:53.220Z,102054.22
2023-05-19T17:35:19.958Z,102071.44
2023-05-19T17:37:46.567Z,102062.66
2023-05-19T17:40:13.559Z,102055.31
2023-05-19T17:42:40.252Z,102076.94
2023-05-19T17:45:07.570Z,102080.00
2023-05-19T17:47:34.402Z,101994.41
2023-05-19T17:50:01.075Z,102060.88
2023-05-19T17:52:27.926Z,102036.78
2023-05-19T17:54:54.697Z,102082.53
2023-05-19T17:57:25.293Z,102080.75
2023-05-19T17:59:52.252Z,102072.69
2023-05-19T18:02:19.253Z,102075.19
2023-05-19T18:04:46.376Z,102065.28
2023-05-19T18:07:14.171Z,102072.53
2023-05-19T18:09:47.731Z,102080.59
2023-05-19T18:12:14.347Z,102073.38
2023-05-19T18:14:40.924Z,102000.78
2023-05-19T18:17:07.564Z,102075.13
2023-05-19T18:19:34.099Z,102069.78
2023-05-19T18:22:01.212Z,102051.78
2023-05-19T18:24:27.788Z,102075.06
2023-05-19T18:26:54.333Z,102080.53
2023-05-19T18:29:20.918Z,102089.59
2023-05-19T18:31:47.663Z,101987.47
2023-05-19T18:34:14.300Z,102099.66
2023-05-19T18:36:41.203Z,102037.78
2023-05-19T18:39:07.811Z,102093.44
2023-05-19T18:41:34.467Z,102030.63
2023-05-19T18:44:01.176Z,102083.56
2023-05-19T18:46:27.964Z,102102.44
2023-05-19T18:48:54.646Z,102107.78
2023-05-19T18:51:21.774Z,102113.94
2023-05-19T18:53:51.335Z,101973.81
2023-05-19T18:56:25.019Z,102093.06
2023-05-19T18:58:52.237Z,102111.81
2023-05-19T19:01:18.852Z,102123.31
2023-05-19T19:03:46.933Z,102119.63
2023-05-19T19:06:13.576Z,102123.09
2023-05-19T19:08:40.169Z,102118.44
2023-05-19T19:11:09.304Z,101976.28
2023-05-19T19:13:36.211Z,101970.75
2023-05-19T19:16:03.020Z,102124.19
2023-05-19T19:18:29.756Z,102008.91
2023-05-19T19:20:57.570Z,102121.97
2023-05-19T19:23:24.468Z,102145.16
2023-05-19T19:25:51.219Z,102127.75
2023-05-19T19:28:17.912Z,102106.94
2023-05-19T19:30:45.768Z,102076.13
2023-05-19T19:33:12.372Z,102143.47
2023-05-19T19:35:38.985Z,102135.13
2023-05-19T19:38:05.624Z,102062.97
2023-05-19T19:40:32.745Z,102166.25
2023-05-19T19:42:59.863Z,102135.50
2023-05-19T19:45:26.478Z,102060.59
2023-05-19T19:47:53.496Z,102065.75
2023-05-19T19:50:20.124Z,102153.72
2023-05-19T19:52:46.706Z,102109.34
2023-05-19T19:55:13.446Z,102172.91
2023-05-19T19:57:40.040Z,102172.84
2023-05-19T20:00:09.948Z,102178.03
2023-05-19T20:02:45.611Z,102176.97
2023-05-19T20:05:22.346Z,102181.25
2023-05-19T20:07:48.935Z,102166.63
2023-05-19T20:10:15.859Z,102170.00
2023-05-19T20:12:43.442Z,102180.75
2023-05-19T20:15:10.822Z,102176.88
2023-05-19T20:17:37.465Z,102189.25
2023-05-19T20:20:09.712Z,102173.00
2023-05-19T20:22:36.509Z,102178.16
2023-05-19T20:25:03.176Z,102180.75
2023-05-19T20:27:29.793Z,102174.38
2023-05-19T20:29:56.684Z,102187.03
2023-05-19T20:32:23.339Z,102180.94
2023-05-19T20:34:50.077Z,102178.16
2023-05-19T20:37:17.360Z,102188.25
2023-05-19T20:39:43.921Z,102175.66
2023-05-19T20:42:11.234Z,102189.16
2023-05-19T20:44:37.877Z,102172.16
2023-05-19T20:47:04.740Z,102153.41
2023-05-19T20:49:31.355Z,102183.16
2023-05-19T20:51:57.999Z,102060.81
2023-05-19T20:54:24.641Z,102179.63
2023-05-19T20:56:51.780Z,102182.63
2023-05-19T20:59:18.395Z,102097.75
2023-05-19T21:01:45.955Z,102184.09
2023-05-19T21:04:12.654Z,102178.63
2023-05-19T21:06:39.414Z,102176.69
2023-05-19T21:09:06.816Z,102181.34
2023-05-19T21:11:34.254Z,102197.63
2023-05-19T21:14:04.040Z,102194.78
2023-05-19T21:16:31.343Z,102136.13
2023-05-19T21:18:58.424Z,102196.28
2023-05-19T21:21:25.654Z,102193.53
2023-05-19T21:23:52.266Z,102208.06
2023-05-19T21:26:18.812Z,102197.28
2023-05-19T21:28:45.572Z,102207.16
2023-05-19T21:31:12.413Z,102201.59
2023-05-19T21:33:39.043Z,102207.00
2023-05-19T21:36:05.910Z,102189.09
2023-05-19T21:38:32.518Z,102180.03
2023-05-19T21:40:59.080Z,102106.22
2023-05-19T21:43:25.979Z,102102.75
2023-05-19T21:45:52.700Z,102194.81
2023-05-19T21:48:19.428Z,102120.81
2023-05-19T21:50:46.094Z,102192.91
2023-05-19T21:53:12.721Z,102216.22
2023-05-19T21:55:39.402Z,102212.59
2023-05-19T21:58:06.171Z,102204.38
2023-05-19T22:00:33.055Z,102128.75
2023-05-19T22:03:00.042Z,102202.78
2023-05-19T22:05:28.953Z,102119.97
2023-05-19T22:07:55.756Z,102198.25
2023-05-19T22:10:22.395Z,102212.75
2023-05-19T22:12:48.977Z,102208.31
2023-05-19T22:15:15.875Z,102203.69
2023-05-19T22:17:42.555Z,102200.97
2023-05-19T22:20:09.510Z,102198.16
2023-05-19T22:22:36.383Z,102212.72
2023-05-19T22:25:03.786Z,102135.28
2023-05-19T22:27:30.670Z,102200.13
2023-05-19T22:29:57.314Z,102194.56
2023-05-19T22:32:24.020Z,102224.25
2023-05-19T22:34:50.815Z,102205.25
2023-05-19T22:37:17.527Z,102138.56
2023-05-19T22:39:44.269Z,102197.25
2023-05-19T22:42:11.044Z,102208.84
2023-05-19T22:44:37.622Z,102194.50
2023-05-19T22:47:04.405Z,102213.28
2023-05-19T22:49:31.079Z,102218.63
2023-05-19T22:51:57.701Z,102222.06
2023-05-19T22:54:24.298Z,102195.81
2023-05-19T22:56:50.879Z,102203.13
2023-05-19T22:59:18.015Z,102213.88
2023-05-19T23:01:46.711Z,102219.13
2023-05-19T23:04:14.067Z,102141.50
2023-05-19T23:06:40.972Z,102128.81
2023-05-19T23:09:07.985Z,102200.22
2023-05-19T23:11:35.823Z,102198.50
2023-05-19T23:14:02.594Z,102200.16
2023-05-19T23:16:29.229Z,102196.59
2023-05-19T23:18:55.936Z,102179.28
2023-05-19T23:21:22.623Z,102208.00
2023-05-19T23:23:49.801Z,102189.94
2023-05-19T23:26:16.486Z,102194.28
2023-05-19T23:28:43.438Z,102179.84
2023-05-19T23:31:10.259Z,102201.47
2023-05-19T23:33:36.970Z,102186.94
2023-05-19T23:36:08.753Z,102204.91
2023-05-19T23:38:36.569Z,102084.78
2023-05-19T23:41:04.021Z,102190.06
2023-05-19T23:43:32.342Z,102203.66
2023-05-19T23:45:59.606Z,102200.72
2023-05-19T23:48:28.293Z,102212.41
2023-05-19T23:50:54.882Z,102154.59
2023-05-19T23:53:21.592Z,102201.13
2023-05-19T23:55:48.244Z,102202.00
2023-05-19T23:58:15.929Z,102197.34
